Colorado Star — 9HA2189 — position and weather

sailwx.info

Track history (hours):
 
Tides and Currents Weather Stations Pressure Air Temp Water Temp Dewpoint Dewpoint Depression Visibility Wind Speed Wind Dir Waves Ship Positions

Colorado Star

Last reported at 2014-Sep-14 22:09 UTC. Time now 2014-Sep-15 02:07 UTC.
Position N 39°23' E 001°32'.

Length 128 m; draft 7.6 m.

Type: Ship. MMSI: 248127000.

Date/timePositionNaut miles runAvg speedWind from/ knotsBaromVisibWave heightAir tempDewpointWater temp
2014-Sep-14 22:09N 39°23' E 001°32'4311.7
2014-Sep-14 18:28N 38°55' E 000°49'1211.7
2014-Sep-14 17:29N 38°48' E 000°38'2311.5
2014-Sep-14 15:27N 38°30' E 000°18'1311.5
2014-Sep-14 14:21N 38°20' E 000°09'2011.2
2014-Sep-14 12:33N 38°03' W 000°05'1111.5
2014-Sep-14 11:33N 37°53' W 000°13'1111.4
2014-Sep-14 10:33N 37°44' W 000°21'1211.3
2014-Sep-14 09:31N 37°34' W 000°30'1111.4
2014-Sep-14 08:33N 37°27' W 000°40'1111.3
2014-Sep-14 07:33N 37°19' W 000°50'1111.2
2014-Sep-14 06:32N 37°12' W 001°01'21611.7
2014-Sep-13 12:03N 35°60' W 005°15'714.5
2014-Sep-13 11:33N 35°58' W 005°23'  
2014-Sep-10 00:05N 47°55' W 006°37'1012.2
2014-Sep-09 23:18N 48°03' W 006°29'912.1
2014-Sep-09 22:34N 48°11' W 006°23'21711.3
2014-Sep-09 03:27N 50°13' W 001°48'1914.8
2014-Sep-09 02:08N 50°18' W 001°19'1215.6
2014-Sep-09 01:23N 50°21' W 001°01'1514.5
2014-Sep-09 00:20N 50°25' W 000°38'1113.2
2014-Sep-08 23:32N 50°28' W 000°22'1611.7
2014-Sep-08 22:10N 50°32' E 000°02'1010.1
2014-Sep-08 21:13N 50°35' E 000°16'6 9.3
2014-Sep-08 20:33N 50°36' E 000°26'9 9.4
2014-Sep-08 19:33N 50°40' E 000°39'1111.2
2014-Sep-08 18:33N 50°47' E 000°54'1913.3
2014-Sep-08 17:06N 50°59' E 001°18'813.9
2014-Sep-08 16:33N 51°04' E 001°27'1212.4
2014-Sep-08 15:33N 51°12' E 001°42'1110.8
2014-Sep-08 14:33N 51°21' E 001°51'10 9.7
2014-Sep-08 13:34N 51°29' E 001°59'10 9.7
2014-Sep-08 12:33N 51°36' E 002°10'6510.7
2014-Sep-08 06:33N 52°03' E 003°45'1010.3
2014-Sep-08 05:33N 52°00' E 004°02'1312.5
2014-Sep-08 04:33N 51°54' E 004°19'2 2.0
2014-Sep-08 03:32N 51°53' E 004°22'0 0.0
2014-Sep-08 01:32N 51°53' E 004°22'0 0.0
2014-Sep-07 13:20N 51°53' E 004°22'0 0.0
2014-Sep-07 07:14N 51°53' E 004°22'0 0.0
2014-Sep-06 11:10N 51°53' E 004°22'0 0.5
2014-Sep-06 10:33N 51°53' E 004°22'8 7.9
2014-Sep-06 09:33N 51°57' E 004°10'1111.4
2014-Sep-06 08:33N 51°60' E 003°53'9 8.6
2014-Sep-06 07:33N 52°07' E 003°44'2 1.7
2014-Sep-06 06:21N 52°09' E 003°42'0 0.0
2014-Sep-06 05:33N 52°09' E 003°42'0 0.0
2014-Sep-06 04:21N 52°09' E 003°42'0 0.0
2014-Sep-06 03:33N 52°09' E 003°42'0 0.0
2014-Sep-06 02:33N 52°09' E 003°42'0 0.1
2014-Sep-06 01:15N 52°09' E 003°42'0 0.0
2014-Sep-05 23:09N 52°09' E 003°42'0 0.0
2014-Sep-05 22:06N 52°09' E 003°42'0 0.1
2014-Sep-05 20:27N 52°09' E 003°42'0 0.0
2014-Sep-05 19:33N 52°09' E 003°42'0 0.0
2014-Sep-05 18:33N 52°09' E 003°42'0 0.0
2014-Sep-05 17:33N 52°09' E 003°42'0 0.0
2014-Sep-05 16:30N 52°09' E 003°42'0 0.0
2014-Sep-05 15:33N 52°09' E 003°42'0 0.0
2014-Sep-05 14:33N 52°09' E 003°42'0 0.0
2014-Sep-05 12:24N 52°09' E 003°42'0 0.0
2014-Sep-05 11:30N 52°09' E 003°42'0 0.0
2014-Sep-05 10:33N 52°09' E 003°42'0 0.0
2014-Sep-05 09:33N 52°09' E 003°42'0 0.0
2014-Sep-05 08:33N 52°09' E 003°42'0 0.1
2014-Sep-05 07:33N 52°09' E 003°42'0 0.0
2014-Sep-05 06:30N 52°09' E 003°42'0 0.0
2014-Sep-05 05:21N 52°09' E 003°42'0 0.0
2014-Sep-05 04:33N 52°09' E 003°42'0 0.0
2014-Sep-05 03:33N 52°09' E 003°42'0 0.0
2014-Sep-05 02:33N 52°09' E 003°42'0 0.0
2014-Sep-05 01:33N 52°09' E 003°42'0 0.1
2014-Sep-05 00:33N 52°09' E 003°42'0 0.0
2014-Sep-04 23:33N 52°09' E 003°42'0 0.0
2014-Sep-04 22:33N 52°09' E 003°42'  
Track history (hours):
 
Tides and Currents Weather Stations Pressure Air Temp Water Temp Dewpoint Dewpoint Depression Visibility Wind Speed Wind Dir Waves Ship Positions

Colorado Star

Last reported at 2014-Sep-14 22:09 UTC. Time now 2014-Sep-15 02:07 UTC.
Position N 39°23' E 001°32'.

Length 128 m; draft 7.6 m.

Type: Ship. MMSI: 248127000.

Date/timePositionNaut miles runAvg speedWind from/ knotsBaromVisibWave heightAir tempDewpointWater temp
2014-Sep-14 22:09N 39°23' E 001°32'4311.7
2014-Sep-14 18:28N 38°55' E 000°49'1211.7
2014-Sep-14 17:29N 38°48' E 000°38'2311.5
2014-Sep-14 15:27N 38°30' E 000°18'1311.5
2014-Sep-14 14:21N 38°20' E 000°09'2011.2
2014-Sep-14 12:33N 38°03' W 000°05'1111.5
2014-Sep-14 11:33N 37°53' W 000°13'1111.4
2014-Sep-14 10:33N 37°44' W 000°21'1211.3
2014-Sep-14 09:31N 37°34' W 000°30'1111.4
2014-Sep-14 08:33N 37°27' W 000°40'1111.3
2014-Sep-14 07:33N 37°19' W 000°50'1111.2
2014-Sep-14 06:32N 37°12' W 001°01'21611.7
2014-Sep-13 12:03N 35°60' W 005°15'714.5
2014-Sep-13 11:33N 35°58' W 005°23'  
2014-Sep-10 00:05N 47°55' W 006°37'1012.2
2014-Sep-09 23:18N 48°03' W 006°29'912.1
2014-Sep-09 22:34N 48°11' W 006°23'21711.3
2014-Sep-09 03:27N 50°13' W 001°48'1914.8
2014-Sep-09 02:08N 50°18' W 001°19'1215.6
2014-Sep-09 01:23N 50°21' W 001°01'1514.5
2014-Sep-09 00:20N 50°25' W 000°38'1113.2
2014-Sep-08 23:32N 50°28' W 000°22'1611.7
2014-Sep-08 22:10N 50°32' E 000°02'1010.1
2014-Sep-08 21:13N 50°35' E 000°16'6 9.3
2014-Sep-08 20:33N 50°36' E 000°26'9 9.4
2014-Sep-08 19:33N 50°40' E 000°39'1111.2
2014-Sep-08 18:33N 50°47' E 000°54'1913.3
2014-Sep-08 17:06N 50°59' E 001°18'813.9
2014-Sep-08 16:33N 51°04' E 001°27'1212.4
2014-Sep-08 15:33N 51°12' E 001°42'1110.8
2014-Sep-08 14:33N 51°21' E 001°51'10 9.7
2014-Sep-08 13:34N 51°29' E 001°59'10 9.7
2014-Sep-08 12:33N 51°36' E 002°10'6510.7
2014-Sep-08 06:33N 52°03' E 003°45'1010.3
2014-Sep-08 05:33N 52°00' E 004°02'1312.5
2014-Sep-08 04:33N 51°54' E 004°19'2 2.0
2014-Sep-08 03:32N 51°53' E 004°22'0 0.0
2014-Sep-08 01:32N 51°53' E 004°22'0 0.0
2014-Sep-07 13:20N 51°53' E 004°22'0 0.0
2014-Sep-07 07:14N 51°53' E 004°22'0 0.0
2014-Sep-06 11:10N 51°53' E 004°22'0 0.5
2014-Sep-06 10:33N 51°53' E 004°22'8 7.9
2014-Sep-06 09:33N 51°57' E 004°10'1111.4
2014-Sep-06 08:33N 51°60' E 003°53'9 8.6
2014-Sep-06 07:33N 52°07' E 003°44'2 1.7
2014-Sep-06 06:21N 52°09' E 003°42'0 0.0
2014-Sep-06 05:33N 52°09' E 003°42'0 0.0
2014-Sep-06 04:21N 52°09' E 003°42'0 0.0
2014-Sep-06 03:33N 52°09' E 003°42'0 0.0
2014-Sep-06 02:33N 52°09' E 003°42'0 0.1
2014-Sep-06 01:15N 52°09' E 003°42'0 0.0
2014-Sep-05 23:09N 52°09' E 003°42'0 0.0
2014-Sep-05 22:06N 52°09' E 003°42'0 0.1
2014-Sep-05 20:27N 52°09' E 003°42'0 0.0
2014-Sep-05 19:33N 52°09' E 003°42'0 0.0
2014-Sep-05 18:33N 52°09' E 003°42'0 0.0
2014-Sep-05 17:33N 52°09' E 003°42'0 0.0
2014-Sep-05 16:30N 52°09' E 003°42'0 0.0
2014-Sep-05 15:33N 52°09' E 003°42'0 0.0
2014-Sep-05 14:33N 52°09' E 003°42'0 0.0
2014-Sep-05 12:24N 52°09' E 003°42'0 0.0
2014-Sep-05 11:30N 52°09' E 003°42'0 0.0
2014-Sep-05 10:33N 52°09' E 003°42'0 0.0
2014-Sep-05 09:33N 52°09' E 003°42'0 0.0
2014-Sep-05 08:33N 52°09' E 003°42'0 0.1
2014-Sep-05 07:33N 52°09' E 003°42'0 0.0
2014-Sep-05 06:30N 52°09' E 003°42'0 0.0
2014-Sep-05 05:21N 52°09' E 003°42'0 0.0
2014-Sep-05 04:33N 52°09' E 003°42'0 0.0
2014-Sep-05 03:33N 52°09' E 003°42'0 0.0
2014-Sep-05 02:33N 52°09' E 003°42'0 0.0
2014-Sep-05 01:33N 52°09' E 003°42'0 0.1
2014-Sep-05 00:33N 52°09' E 003°42'0 0.0
2014-Sep-04 23:33N 52°09' E 003°42'0 0.0
2014-Sep-04 22:33N 52°09' E 003°42'  

Dump ship's entire track history